LQBK

Details ICAO LQBK (BNX)
Name BANJA LUKA
Region Bosnia and Herzegovinia
Timezone Europe/Sarajevo (UTC+2.0)
Plans Departing 35
Arriving 39
Stats Elevation 400 ft / 122 m (AMSL)
Location 44.941573° 17.297081°
Runways 1
Magnetic Variation 4.181° E
Sunrise 2018-05-23 03:15:38 UTC / 2018-05-23 05:15:38 Local
Sunset 2018-05-23 18:22:20 UTC / 2018-05-23 20:22:20 Local
Advertisement - Login to hide

Runways

ID Width Length Bearing (true) Bearing (mag) Surface Threshold Offset Overrun Length
17 148 ft / 45 m 8,174 ft / 2,491 m 169.53° 165.35° Concrete 0 ft / 0 m 0 ft / 0 m
35 148 ft / 45 m 8,174 ft / 2,491 m 349.54° 345.36° Concrete 0 ft / 0 m 0 ft / 0 m

Approach Navaids

Runway Type Ident Frequency Range Bearing (true) Bearing (mag) Slope Elevation
17 Localiser BAL 108.70 MHz 25 nm / 46 km 170.00° 165.82° - 413 ft / 126 m (AMSL)
17 Glidescope BAL 108.70 MHz 25 nm / 46 km 170.00° 165.82° 3.00° 428 ft / 130 m (AMSL)

Map

Weather


0- 5 10 15 20 25 30 35+ Temperature / ° C

Clouds and Precipitation
Forecast for 2018-05-23 00:00 UTC. Updated 24 minutes ago

Ground ~20,000 ft ~40,000 ft Winds

METAR

LQBK 222330Z 00000KT CAVOK 14/14 Q1016 NOSIG

TAF

Not found

Frequencies

Tower 118.95 MHz TWR
Approach 118.95 MHz APP
Warning: Do not use this data for real-world aviation or navigation. No guarantee of current accuracy is given.